Svanen — LKXK — position and weather

sailwx.info

Track history (hours):
 
Tides and Currents Weather Stations Pressure Air Temp Water Temp Dewpoint Dewpoint Depression Visibility Wind Speed Wind Dir Waves Ship Positions

Svanen (Norway)

Ship's website: http://www.svanen.no/english/english.php1

Last reported at 2017-Jun-29 01:31 UTC. Time now 2017-Jun-29 01:49 UTC.
Position N 58°56' E 011°10'.

Length 27 m; draft 2.8 m.

Type: Sailing vessel. MMSI: 259173000.

Date/timePositionNaut miles runAvg speedWind from/ knotsBaromVisibWave heightAir tempDewpointWater temp
2017-Jun-29 01:31N 58°56' E 011°10'0 0.0
2017-Jun-29 01:00N 58°56' E 011°10'0 0.0
2017-Jun-29 00:28N 58°56' E 011°10'0 0.0
2017-Jun-29 00:01N 58°56' E 011°10'0 0.0
2017-Jun-28 23:28N 58°56' E 011°10'0 0.0
2017-Jun-28 22:58N 58°56' E 011°10'0 0.0
2017-Jun-28 22:30N 58°56' E 011°10'0 0.0
2017-Jun-28 22:00N 58°56' E 011°10'0 0.0
2017-Jun-28 21:28N 58°56' E 011°10'0 0.0
2017-Jun-28 20:58N 58°56' E 011°10'0 0.0
2017-Jun-28 20:28N 58°56' E 011°10'0 0.0
2017-Jun-28 20:00N 58°56' E 011°10'0 0.0
2017-Jun-28 19:28N 58°56' E 011°10'0 0.0
2017-Jun-28 18:58N 58°56' E 011°10'0 0.0
2017-Jun-28 18:31N 58°56' E 011°10'0 0.0
2017-Jun-28 17:58N 58°56' E 011°10'0 0.0
2017-Jun-28 17:28N 58°56' E 011°10'0 0.0
2017-Jun-28 16:58N 58°56' E 011°10'0 0.0
2017-Jun-28 16:30N 58°56' E 011°10'0 0.0
2017-Jun-28 16:00N 58°56' E 011°10'0 0.0
2017-Jun-28 15:28N 58°56' E 011°10'0 0.0
2017-Jun-28 14:58N 58°56' E 011°10'3 3.1
2017-Jun-28 14:00N 58°57' E 011°04'3 6.1
2017-Jun-28 13:30N 58°59' E 011°00'3 5.8
2017-Jun-28 13:00N 59°00' E 010°55'3 5.4
2017-Jun-28 12:30N 59°02' E 010°51'3 6.7
2017-Jun-28 12:00N 59°04' E 010°45'4 7.1
2017-Jun-28 11:30N 59°06' E 010°39'4 7.2
2017-Jun-28 11:00N 59°07' E 010°33'4 7.1
2017-Jun-28 10:30N 59°09' E 010°27'2 4.7
2017-Jun-28 10:00N 59°10' E 010°23'2 3.2
2017-Jun-28 09:30N 59°11' E 010°21'1 2.3
2017-Jun-28 09:00N 59°13' E 010°21'0 0.0
2017-Jun-28 08:29N 59°13' E 010°21'0 0.0
2017-Jun-28 07:59N 59°13' E 010°21'0 0.0
2017-Jun-28 07:25N 59°13' E 010°21'0 0.0
2017-Jun-28 07:00N 59°13' E 010°21'0 0.0
2017-Jun-28 06:30N 59°13' E 010°21'0 0.0
2017-Jun-28 06:00N 59°13' E 010°21'0 0.0
2017-Jun-28 05:29N 59°13' E 010°21'0 0.0
2017-Jun-28 05:00N 59°13' E 010°21'0 0.0
2017-Jun-28 04:26N 59°13' E 010°21'0 0.0
2017-Jun-28 03:59N 59°13' E 010°21'0 0.0
2017-Jun-28 03:29N 59°13' E 010°21'0 0.0
2017-Jun-28 02:59N 59°13' E 010°21'0 0.0
2017-Jun-28 02:29N 59°13' E 010°21'0 0.0
2017-Jun-28 02:00N 59°13' E 010°21'0 0.0
2017-Jun-28 01:30N 59°13' E 010°21'0 0.0
2017-Jun-28 01:00N 59°13' E 010°21'0 0.0
2017-Jun-28 00:30N 59°13' E 010°21'0 0.0
2017-Jun-28 00:00N 59°13' E 010°21'0 0.0
2017-Jun-27 23:30N 59°13' E 010°21'0 0.0
2017-Jun-27 22:59N 59°13' E 010°21'0 0.0
2017-Jun-27 22:30N 59°13' E 010°21'0 0.0
2017-Jun-27 22:00N 59°13' E 010°21'0 0.0
2017-Jun-27 21:30N 59°13' E 010°21'0 0.0
2017-Jun-27 21:00N 59°13' E 010°21'0 0.0
2017-Jun-27 20:29N 59°13' E 010°21'0 0.0
2017-Jun-27 19:56N 59°13' E 010°21'0 0.0
2017-Jun-27 19:29N 59°13' E 010°21'0 0.0
2017-Jun-27 18:59N 59°13' E 010°21'0 0.0
2017-Jun-27 18:26N 59°13' E 010°21'0 0.0
2017-Jun-27 18:00N 59°13' E 010°21'0 0.0
2017-Jun-27 17:30N 59°13' E 010°21'0 0.0
2017-Jun-27 17:00N 59°13' E 010°21'0 0.0
2017-Jun-27 16:30N 59°13' E 010°21'0 0.0
2017-Jun-27 16:00N 59°13' E 010°21'0 0.0
2017-Jun-27 15:30N 59°13' E 010°21'0 0.0
2017-Jun-27 15:00N 59°13' E 010°21'0 0.0
2017-Jun-27 14:30N 59°13' E 010°21'0 0.2
2017-Jun-27 13:30N 59°13' E 010°21'3 5.7
2017-Jun-27 13:00N 59°10' E 010°23'2 5.0
2017-Jun-27 12:30N 59°09' E 010°27'3 5.7
2017-Jun-27 12:00N 59°12' E 010°29'3 6.4
2017-Jun-27 11:30N 59°15' E 010°31'4 7.1
2017-Jun-27 11:00N 59°19' E 010°33'3 6.9
2017-Jun-27 10:30N 59°22' E 010°33'4 7.3
2017-Jun-27 10:00N 59°26' E 010°31'1 2.5
2017-Jun-27 09:30N 59°26' E 010°29'0 0.3
2017-Jun-27 09:00N 59°26' E 010°29'0 0.0
2017-Jun-27 08:29N 59°26' E 010°29'0 0.0
2017-Jun-27 07:58N 59°26' E 010°29'0 0.0
2017-Jun-27 07:29N 59°26' E 010°29'0 0.0
2017-Jun-27 06:59N 59°26' E 010°29'0 0.0
2017-Jun-27 06:30N 59°26' E 010°29'0 0.0
2017-Jun-27 06:00N 59°26' E 010°29'0 0.0
2017-Jun-27 05:30N 59°26' E 010°29'0 0.0
2017-Jun-27 04:59N 59°26' E 010°29'0 0.0
2017-Jun-27 04:30N 59°26' E 010°29'0 0.0
2017-Jun-27 03:59N 59°26' E 010°29'0 0.0
2017-Jun-27 03:29N 59°26' E 010°29'0 0.0
2017-Jun-27 02:59N 59°26' E 010°29'0 0.0
2017-Jun-27 02:30N 59°26' E 010°29'0 0.0
2017-Jun-27 01:59N 59°26' E 010°29'0 0.0
2017-Jun-27 01:29N 59°26' E 010°29'0 0.0
2017-Jun-27 01:00N 59°26' E 010°29'0 0.0
2017-Jun-27 00:29N 59°26' E 010°29'0 0.0
2017-Jun-26 23:59N 59°26' E 010°29'0 0.0
2017-Jun-26 23:28N 59°26' E 010°29'0 0.0
2017-Jun-26 22:59N 59°26' E 010°29'0 0.0
2017-Jun-26 22:30N 59°26' E 010°29'0 0.0
2017-Jun-26 21:58N 59°26' E 010°29'0 0.0
2017-Jun-26 21:28N 59°26' E 010°29'0 0.0
2017-Jun-26 20:58N 59°26' E 010°29'0 0.0
2017-Jun-26 20:31N 59°26' E 010°29'0 0.0
2017-Jun-26 19:58N 59°26' E 010°29'0 0.0
2017-Jun-26 19:29N 59°26' E 010°29'0 0.0
2017-Jun-26 18:58N 59°26' E 010°29'0 0.0
2017-Jun-26 18:28N 59°26' E 010°29'0 0.0
2017-Jun-26 17:59N 59°26' E 010°29'0 0.0
2017-Jun-26 17:30N 59°26' E 010°29'0 0.0
2017-Jun-26 16:59N 59°26' E 010°29'0 0.0
2017-Jun-26 16:29N 59°26' E 010°29'0 0.0
2017-Jun-26 15:55N 59°26' E 010°29'0 0.1
2017-Jun-26 15:30N 59°26' E 010°29'2 4.7
2017-Jun-26 15:00N 59°28' E 010°30'3 6.8
2017-Jun-26 14:30N 59°31' E 010°34'7 6.7
2017-Jun-26 13:31N 59°37' E 010°37'3 6.2
2017-Jun-26 13:00N 59°40' E 010°36'3 6.3
2017-Jun-26 12:30N 59°43' E 010°32'4 7.2
2017-Jun-26 12:00N 59°46' E 010°33'4 7.0
2017-Jun-26 11:31N 59°50' E 010°34'4 7.2
2017-Jun-26 10:59N 59°53' E 010°39'2 0.8
2017-Jun-26 08:21N 59°54' E 010°42'0 0.0
2017-Jun-26 07:58N 59°54' E 010°42'0 0.0
2017-Jun-26 07:27N 59°54' E 010°42'0 0.0
2017-Jun-26 07:00N 59°54' E 010°42'0 0.0
2017-Jun-26 06:30N 59°54' E 010°42'0 0.0
2017-Jun-26 05:58N 59°54' E 010°42'0 0.0
2017-Jun-26 05:28N 59°54' E 010°42'0 0.0
2017-Jun-26 05:00N 59°54' E 010°42'0 0.0
2017-Jun-26 04:27N 59°54' E 010°42'0 0.0
2017-Jun-26 03:57N 59°54' E 010°42'0 0.0
2017-Jun-26 03:27N 59°54' E 010°42'0 0.0
2017-Jun-26 02:58N 59°54' E 010°42'0 0.0
2017-Jun-26 02:30N 59°54' E 010°42'0 0.0
2017-Jun-26 02:00N 59°54' E 010°42'0 0.0
2017-Jun-26 01:30N 59°54' E 010°42'0 0.0
2017-Jun-26 00:58N 59°54' E 010°42'0 0.0
2017-Jun-26 00:28N 59°54' E 010°42'0 0.0
2017-Jun-26 00:01N 59°54' E 010°42'0 0.0
2017-Jun-25 23:28N 59°54' E 010°42'0 0.0
2017-Jun-25 22:57N 59°54' E 010°42'0 0.0
2017-Jun-25 22:28N 59°54' E 010°42'0 0.0
2017-Jun-25 21:57N 59°54' E 010°42'0 0.0
2017-Jun-25 21:30N 59°54' E 010°42'0 0.0
2017-Jun-25 21:00N 59°54' E 010°42'0 0.0
2017-Jun-25 20:28N 59°54' E 010°42'0 0.0
2017-Jun-25 19:58N 59°54' E 010°42'0 0.0
2017-Jun-25 19:27N 59°54' E 010°42'0 0.0
2017-Jun-25 19:00N 59°54' E 010°42'0 0.0
2017-Jun-25 18:30N 59°54' E 010°42'0 0.0
2017-Jun-25 17:55N 59°54' E 010°42'0 0.0
2017-Jun-25 17:28N 59°54' E 010°42'0 0.0
2017-Jun-25 16:58N 59°54' E 010°42'0 0.0
2017-Jun-25 16:28N 59°54' E 010°42'0 0.0
2017-Jun-25 16:00N 59°54' E 010°42'0 0.0
2017-Jun-25 15:27N 59°54' E 010°42'0 0.0
2017-Jun-25 14:57N 59°54' E 010°42'0 0.0
2017-Jun-25 14:28N 59°54' E 010°42'0 0.0
2017-Jun-25 13:27N 59°54' E 010°42'0 0.0
2017-Jun-25 13:00N 59°54' E 010°42'0 0.0
2017-Jun-25 12:30N 59°54' E 010°42'0 0.0
2017-Jun-25 11:58N 59°54' E 010°42'0 0.0
2017-Jun-25 11:30N 59°54' E 010°42'0 0.0
2017-Jun-25 11:00N 59°54' E 010°42'0 0.0
2017-Jun-25 10:28N 59°54' E 010°42'0 0.0
2017-Jun-25 10:01N 59°54' E 010°42'0 0.0
2017-Jun-25 09:30N 59°54' E 010°42'0 0.0
2017-Jun-25 09:00N 59°54' E 010°42'0 0.0
2017-Jun-25 08:28N 59°54' E 010°42'0 0.0
2017-Jun-25 07:58N 59°54' E 010°42'0 0.0
2017-Jun-25 07:27N 59°54' E 010°42'0 0.0
2017-Jun-25 06:58N 59°54' E 010°42'0 0.0
2017-Jun-25 06:31N 59°54' E 010°42'0 0.0
2017-Jun-25 05:58N 59°54' E 010°42'0 0.0
2017-Jun-25 05:28N 59°54' E 010°42'0 0.0
2017-Jun-25 04:57N 59°54' E 010°42'0 0.0
2017-Jun-25 04:27N 59°54' E 010°42'0 0.0
2017-Jun-25 04:00N 59°54' E 010°42'0 0.0
2017-Jun-25 03:30N 59°54' E 010°42'0 0.0
2017-Jun-25 02:58N 59°54' E 010°42'0 0.0
2017-Jun-25 02:28N 59°54' E 010°42'0 0.0
2017-Jun-25 01:57N 59°54' E 010°42'0 0.0
2017-Jun-25 01:27N 59°54' E 010°42'0 0.0
2017-Jun-25 00:57N 59°54' E 010°42'0 0.0
2017-Jun-25 00:28N 59°54' E 010°42'0 0.0
2017-Jun-24 23:57N 59°54' E 010°42'0 0.0
2017-Jun-24 23:28N 59°54' E 010°42'0 0.0
2017-Jun-24 22:58N 59°54' E 010°42'0 0.0
2017-Jun-24 22:31N 59°54' E 010°42'0 0.0
2017-Jun-24 22:00N 59°54' E 010°42'0 0.0
2017-Jun-24 21:30N 59°54' E 010°42'0 0.0
2017-Jun-24 20:58N 59°54' E 010°42'0 0.0
2017-Jun-24 20:31N 59°54' E 010°42'0 0.0
2017-Jun-24 20:01N 59°54' E 010°42'0 0.0
2017-Jun-24 19:30N 59°54' E 010°42'0 0.0
2017-Jun-24 18:58N 59°54' E 010°42'0 0.0
2017-Jun-24 18:28N 59°54' E 010°42'0 0.0
2017-Jun-24 17:58N 59°54' E 010°42'0 0.0
2017-Jun-24 17:27N 59°54' E 010°42'0 0.0
2017-Jun-24 17:01N 59°54' E 010°42'0 0.0
2017-Jun-24 16:28N 59°54' E 010°42'0 0.0
2017-Jun-24 15:58N 59°54' E 010°42'0 0.0
2017-Jun-24 15:27N 59°54' E 010°42'0 0.0
2017-Jun-24 14:57N 59°54' E 010°42'0 0.0
2017-Jun-24 13:58N 59°54' E 010°42'0 0.0
2017-Jun-24 13:28N 59°54' E 010°42'0 0.0
2017-Jun-24 13:00N 59°54' E 010°42'0 0.0
2017-Jun-24 12:30N 59°54' E 010°42'0 0.0
2017-Jun-24 11:58N 59°54' E 010°42'0 0.0
2017-Jun-24 11:27N 59°54' E 010°42'0 0.0
2017-Jun-24 10:58N 59°54' E 010°42'0 0.0
2017-Jun-24 10:28N 59°54' E 010°42'0 0.0
2017-Jun-24 09:58N 59°54' E 010°42'0 0.0
2017-Jun-24 09:28N 59°54' E 010°42'0 0.0
2017-Jun-24 08:58N 59°54' E 010°42'0 0.0
2017-Jun-24 08:30N 59°54' E 010°42'0 0.0
2017-Jun-24 07:58N 59°54' E 010°42'0 0.0
2017-Jun-24 07:28N 59°54' E 010°42'0 0.0
2017-Jun-24 06:57N 59°54' E 010°42'0 0.0
2017-Jun-24 06:27N 59°54' E 010°42'0 0.0
2017-Jun-24 05:58N 59°54' E 010°42'0 0.0
2017-Jun-24 05:28N 59°54' E 010°42'0 0.0
2017-Jun-24 04:57N 59°54' E 010°42'0 0.0
2017-Jun-24 04:30N 59°54' E 010°42'0 0.0
2017-Jun-24 04:00N 59°54' E 010°42'0 0.0
2017-Jun-24 03:27N 59°54' E 010°42'0 0.0
2017-Jun-24 02:58N 59°54' E 010°42'0 0.0
2017-Jun-24 02:28N 59°54' E 010°42'0 0.0
2017-Jun-24 02:00N 59°54' E 010°42'0 0.0
2017-Jun-24 01:27N 59°54' E 010°42'0 0.0
2017-Jun-24 01:00N 59°54' E 010°42'0 0.0
2017-Jun-24 00:30N 59°54' E 010°42'0 0.0
2017-Jun-24 00:00N 59°54' E 010°42'0 0.0
2017-Jun-23 23:28N 59°54' E 010°42'0 0.0
2017-Jun-23 22:58N 59°54' E 010°42'0 0.0
2017-Jun-23 22:27N 59°54' E 010°42'0 0.0
2017-Jun-23 21:58N 59°54' E 010°42'0 0.0
2017-Jun-23 21:28N 59°54' E 010°42'0 0.0
2017-Jun-23 21:00N 59°54' E 010°42'0 0.0
2017-Jun-23 20:28N 59°54' E 010°42'0 0.0
2017-Jun-23 19:58N 59°54' E 010°42'1 1.5
2017-Jun-23 19:30N 59°54' E 010°43'2 3.4
2017-Jun-23 19:00N 59°52' E 010°41'2 5.0
2017-Jun-23 18:31N 59°52' E 010°36'1 3.0
2017-Jun-23 18:00N 59°52' E 010°33'1 2.3
2017-Jun-23 17:30N 59°53' E 010°35'2 3.0
2017-Jun-23 17:00N 59°53' E 010°38'3 5.1
2017-Jun-23 16:29N 59°53' E 010°43'1 2.2
2017-Jun-23 16:00N 59°54' E 010°43'0 0.8
2017-Jun-23 15:30N 59°54' E 010°42'0 0.0
2017-Jun-23 15:00N 59°54' E 010°42'0 0.0
2017-Jun-23 14:00N 59°54' E 010°42'0 0.0
2017-Jun-23 13:30N 59°54' E 010°42'0 0.0
2017-Jun-23 13:00N 59°54' E 010°42'0 0.0
2017-Jun-23 12:30N 59°54' E 010°42'0 0.0
2017-Jun-23 12:00N 59°54' E 010°42'0 0.0
2017-Jun-23 11:30N 59°54' E 010°42'0 0.0
2017-Jun-23 11:00N 59°54' E 010°42'0 0.0
2017-Jun-23 10:30N 59°54' E 010°42'0 0.0
2017-Jun-23 10:00N 59°54' E 010°42'0 0.0
2017-Jun-23 09:30N 59°54' E 010°42'0 0.0
2017-Jun-23 09:00N 59°54' E 010°42'0 0.0
2017-Jun-23 08:30N 59°54' E 010°42'0 0.0
2017-Jun-23 07:59N 59°54' E 010°42'0 0.0
2017-Jun-23 07:29N 59°54' E 010°42'0 0.0
2017-Jun-23 06:57N 59°54' E 010°42'0 0.0
2017-Jun-23 06:30N 59°54' E 010°42'0 0.0
2017-Jun-23 06:00N 59°54' E 010°42'0 0.0
2017-Jun-23 05:30N 59°54' E 010°42'0 0.0
2017-Jun-23 05:00N 59°54' E 010°42'0 0.0
2017-Jun-23 04:30N 59°54' E 010°42'0 0.0
2017-Jun-23 03:59N 59°54' E 010°42'0 0.0
2017-Jun-23 03:29N 59°54' E 010°42'0 0.0
2017-Jun-23 03:00N 59°54' E 010°42'0 0.0
2017-Jun-23 02:30N 59°54' E 010°42'0 0.0
2017-Jun-23 02:00N 59°54' E 010°42'0 0.0
2017-Jun-23 01:30N 59°54' E 010°42'0 0.0
2017-Jun-23 01:00N 59°54' E 010°42'0 0.0
2017-Jun-23 00:30N 59°54' E 010°42'0 0.0
2017-Jun-23 00:00N 59°54' E 010°42'0 0.0
2017-Jun-22 23:30N 59°54' E 010°42'0 0.0
2017-Jun-22 23:00N 59°54' E 010°42'0 0.0
2017-Jun-22 22:30N 59°54' E 010°42'0 0.0
2017-Jun-22 22:00N 59°54' E 010°42'0 0.0
2017-Jun-22 21:29N 59°54' E 010°42'0 0.0
2017-Jun-22 21:00N 59°54' E 010°42'0 0.0
2017-Jun-22 20:30N 59°54' E 010°42'0 0.0
2017-Jun-22 20:00N 59°54' E 010°42'0 0.0
2017-Jun-22 19:30N 59°54' E 010°42'0 0.0
2017-Jun-22 19:00N 59°54' E 010°42'0 0.0
2017-Jun-22 18:30N 59°54' E 010°42'0 0.0
2017-Jun-22 18:00N 59°54' E 010°42'0 0.0
2017-Jun-22 17:29N 59°54' E 010°42'0 0.0
2017-Jun-22 17:00N 59°54' E 010°42'0 0.0
2017-Jun-22 16:30N 59°54' E 010°42'0 0.0
2017-Jun-22 15:59N 59°54' E 010°42'0 0.0
2017-Jun-22 15:30N 59°54' E 010°42'0 0.0
2017-Jun-22 15:00N 59°54' E 010°42'0 0.0
2017-Jun-22 13:57N 59°54' E 010°42'0 0.0
2017-Jun-22 13:29N 59°54' E 010°42'0 0.0
2017-Jun-22 13:00N 59°54' E 010°42'0 0.0
2017-Jun-22 12:30N 59°54' E 010°42'0 0.0
2017-Jun-22 12:00N 59°54' E 010°42'0 0.0
2017-Jun-22 11:29N 59°54' E 010°42'0 0.0
2017-Jun-22 11:00N 59°54' E 010°42'0 0.0
2017-Jun-22 10:30N 59°54' E 010°42'0 0.0
2017-Jun-22 10:00N 59°54' E 010°42'0 0.0
2017-Jun-22 09:30N 59°54' E 010°42'0 0.0
2017-Jun-22 08:59N 59°54' E 010°42'0 0.0
2017-Jun-22 08:29N 59°54' E 010°42'0 0.0
2017-Jun-22 08:00N 59°54' E 010°42'0 0.0
2017-Jun-22 07:29N 59°54' E 010°42'0 0.0
2017-Jun-22 07:00N 59°54' E 010°42'0 0.0
2017-Jun-22 06:30N 59°54' E 010°42'0 0.0
2017-Jun-22 06:00N 59°54' E 010°42'0 0.0
2017-Jun-22 05:30N 59°54' E 010°42'0 0.0
2017-Jun-22 05:00N 59°54' E 010°42'0 0.0
2017-Jun-22 04:30N 59°54' E 010°42'0 0.0
2017-Jun-22 03:59N 59°54' E 010°42'0 0.0
2017-Jun-22 03:30N 59°54' E 010°42'0 0.0
2017-Jun-22 03:00N 59°54' E 010°42'0 0.0
2017-Jun-22 02:30N 59°54' E 010°42'0 0.0
2017-Jun-22 02:00N 59°54' E 010°42'0 0.0
2017-Jun-22 01:30N 59°54' E 010°42'0 0.0
2017-Jun-22 00:59N 59°54' E 010°42'0 0.0
2017-Jun-22 00:30N 59°54' E 010°42'0 0.0
2017-Jun-22 00:00N 59°54' E 010°42'0 0.0
2017-Jun-21 23:30N 59°54' E 010°42'0 0.0
2017-Jun-21 22:59N 59°54' E 010°42'0 0.0
2017-Jun-21 22:29N 59°54' E 010°42'0 0.0
2017-Jun-21 22:00N 59°54' E 010°42'0 0.0
2017-Jun-21 21:30N 59°54' E 010°42'0 0.0
2017-Jun-21 21:00N 59°54' E 010°42'0 0.0
2017-Jun-21 20:30N 59°54' E 010°42'0 0.0
2017-Jun-21 20:00N 59°54' E 010°42'0 0.0
2017-Jun-21 19:29N 59°54' E 010°42'0 0.0
2017-Jun-21 18:59N 59°54' E 010°42'0 0.0
2017-Jun-21 18:30N 59°54' E 010°42'0 0.0
2017-Jun-21 17:59N 59°54' E 010°42'0 0.0
2017-Jun-21 17:30N 59°54' E 010°42'0 0.0
2017-Jun-21 16:59N 59°54' E 010°42'0 0.0
2017-Jun-21 16:29N 59°54' E 010°42'0 0.0
2017-Jun-21 16:00N 59°54' E 010°42'0 0.0
2017-Jun-21 15:30N 59°54' E 010°42'0 0.0
2017-Jun-21 15:00N 59°54' E 010°42'0 0.0
2017-Jun-21 14:30N 59°54' E 010°42'0 0.0
2017-Jun-21 13:30N 59°54' E 010°42'0 0.0
2017-Jun-21 13:00N 59°54' E 010°42'0 0.0
2017-Jun-21 12:30N 59°54' E 010°42'0 0.0
2017-Jun-21 12:00N 59°54' E 010°42'0 0.0
2017-Jun-21 11:29N 59°54' E 010°42'0 0.0
2017-Jun-21 11:00N 59°54' E 010°42'0 0.0
2017-Jun-21 10:29N 59°54' E 010°42'0 0.0
2017-Jun-21 09:59N 59°54' E 010°42'0 0.0
2017-Jun-21 09:29N 59°54' E 010°42'0 0.0
2017-Jun-21 08:59N 59°54' E 010°42'0 0.0
2017-Jun-21 08:30N 59°54' E 010°42'0 0.0
2017-Jun-21 08:00N 59°54' E 010°42'0 0.0
2017-Jun-21 07:30N 59°54' E 010°42'0 0.0
2017-Jun-21 07:00N 59°54' E 010°42'0 0.0
2017-Jun-21 06:30N 59°54' E 010°42'0 0.0
2017-Jun-21 05:59N 59°54' E 010°42'0 0.0
2017-Jun-21 05:30N 59°54' E 010°42'0 0.0
2017-Jun-21 04:59N 59°54' E 010°42'0 0.0
2017-Jun-21 04:26N 59°54' E 010°42'0 0.0
2017-Jun-21 03:59N 59°54' E 010°42'0 0.0
2017-Jun-21 03:30N 59°54' E 010°42'0 0.0
2017-Jun-21 02:59N 59°54' E 010°42'0 0.0
2017-Jun-21 02:29N 59°54' E 010°42'0 0.0
2017-Jun-21 02:00N 59°54' E 010°42'0 0.0
2017-Jun-21 01:30N 59°54' E 010°42'0 0.0
2017-Jun-21 01:00N 59°54' E 010°42'0 0.0
2017-Jun-21 00:30N 59°54' E 010°42'0 0.0
2017-Jun-20 23:59N 59°54' E 010°42'0 0.0
2017-Jun-20 23:30N 59°54' E 010°42'0 0.0
2017-Jun-20 22:59N 59°54' E 010°42'0 0.0
2017-Jun-20 22:29N 59°54' E 010°42'0 0.0
2017-Jun-20 22:00N 59°54' E 010°42'0 0.0
2017-Jun-20 21:30N 59°54' E 010°42'0 0.0
2017-Jun-20 21:00N 59°54' E 010°42'0 0.0
2017-Jun-20 20:30N 59°54' E 010°42'0 0.0
2017-Jun-20 20:00N 59°54' E 010°42'0 0.0
2017-Jun-20 19:30N 59°54' E 010°42'0 0.0
2017-Jun-20 19:00N 59°54' E 010°42'0 0.0
2017-Jun-20 18:29N 59°54' E 010°42'0 0.0
2017-Jun-20 17:59N 59°54' E 010°42'0 0.0
2017-Jun-20 17:29N 59°54' E 010°42'0 0.0
2017-Jun-20 17:00N 59°54' E 010°42'0 0.0
2017-Jun-20 16:29N 59°54' E 010°42'0 0.0
2017-Jun-20 15:59N 59°54' E 010°42'0 0.0
2017-Jun-20 15:30N 59°54' E 010°42'0 0.0
2017-Jun-20 14:57N 59°54' E 010°42'0 0.0
2017-Jun-20 14:30N 59°54' E 010°42'0 0.0
2017-Jun-20 13:29N 59°54' E 010°42'0 0.0
2017-Jun-20 12:59N 59°54' E 010°42'0 0.0
2017-Jun-20 12:30N 59°54' E 010°42'0 0.0
2017-Jun-20 11:59N 59°54' E 010°42'0 0.0
2017-Jun-20 11:30N 59°54' E 010°42'0 0.0
2017-Jun-20 11:00N 59°54' E 010°42'0 0.0
2017-Jun-20 10:29N 59°54' E 010°42'0 0.0
2017-Jun-20 10:00N 59°54' E 010°42'0 0.0
2017-Jun-20 09:30N 59°54' E 010°42'0 0.0
2017-Jun-20 09:00N 59°54' E 010°42'0 0.0
2017-Jun-20 08:29N 59°54' E 010°42'0 0.0
2017-Jun-20 08:00N 59°54' E 010°42'0 0.0
2017-Jun-20 07:30N 59°54' E 010°42'0 0.0
2017-Jun-20 07:00N 59°54' E 010°42'0 0.0
2017-Jun-20 06:30N 59°54' E 010°42'0 0.0
2017-Jun-20 05:59N 59°54' E 010°42'0 0.0
2017-Jun-20 05:29N 59°54' E 010°42'0 0.0
2017-Jun-20 05:00N 59°54' E 010°42'0 0.0
2017-Jun-20 04:30N 59°54' E 010°42'0 0.0
2017-Jun-20 04:00N 59°54' E 010°42'0 0.0
2017-Jun-20 03:30N 59°54' E 010°42'0 0.0
2017-Jun-20 03:00N 59°54' E 010°42'0 0.0
2017-Jun-20 02:30N 59°54' E 010°42'0 0.0
2017-Jun-20 02:00N 59°54' E 010°42'0 0.0
2017-Jun-20 01:30N 59°54' E 010°42'0 0.0
2017-Jun-20 01:00N 59°54' E 010°42'0 0.0
2017-Jun-20 00:30N 59°54' E 010°42'0 0.0
2017-Jun-20 00:00N 59°54' E 010°42'0 0.0
2017-Jun-19 23:29N 59°54' E 010°42'0 0.0
2017-Jun-19 22:59N 59°54' E 010°42'0 0.0
2017-Jun-19 22:30N 59°54' E 010°42'0 0.0
2017-Jun-19 21:59N 59°54' E 010°42'0 0.0
2017-Jun-19 21:30N 59°54' E 010°42'0 0.0
2017-Jun-19 21:00N 59°54' E 010°42'0 0.0
2017-Jun-19 20:29N 59°54' E 010°42'0 0.0
2017-Jun-19 20:00N 59°54' E 010°42'0 0.0
2017-Jun-19 19:30N 59°54' E 010°42'0 0.0
2017-Jun-19 18:59N 59°54' E 010°42'0 0.0
2017-Jun-19 18:30N 59°54' E 010°42'0 0.0
2017-Jun-19 18:00N 59°54' E 010°42'0 0.0
2017-Jun-19 17:30N 59°54' E 010°42'0 0.0
2017-Jun-19 16:59N 59°54' E 010°42'0 0.0
2017-Jun-19 16:30N 59°54' E 010°42'0 0.0
2017-Jun-19 16:00N 59°54' E 010°42'0 0.0
2017-Jun-19 15:30N 59°54' E 010°42'0 0.0
2017-Jun-19 14:59N 59°54' E 010°42'0 0.0
2017-Jun-19 14:30N 59°54' E 010°42'0 0.0
2017-Jun-19 13:30N 59°54' E 010°42'0 0.0
2017-Jun-19 13:00N 59°54' E 010°42'0 0.0
2017-Jun-19 12:30N 59°54' E 010°42'0 0.0
2017-Jun-19 11:59N 59°54' E 010°42'0 0.0
2017-Jun-19 11:30N 59°54' E 010°42'0 0.0
2017-Jun-19 11:00N 59°54' E 010°42'0 0.0
2017-Jun-19 10:30N 59°54' E 010°42'0 0.0
2017-Jun-19 09:59N 59°54' E 010°42'0 0.0
2017-Jun-19 09:29N 59°54' E 010°42'0 0.0
2017-Jun-19 08:59N 59°54' E 010°42'0 0.0
2017-Jun-19 08:30N 59°54' E 010°42'0 0.0
2017-Jun-19 08:00N 59°54' E 010°42'0 0.0
2017-Jun-19 07:29N 59°54' E 010°42'0 0.0
2017-Jun-19 07:00N 59°54' E 010°42'0 0.0
2017-Jun-19 06:29N 59°54' E 010°42'0 0.0
2017-Jun-19 06:00N 59°54' E 010°42'0 0.0
2017-Jun-19 05:30N 59°54' E 010°42'0 0.0
2017-Jun-19 05:00N 59°54' E 010°42'0 0.0
2017-Jun-19 04:30N 59°54' E 010°42'0 0.0
2017-Jun-19 04:00N 59°54' E 010°42'0 0.0
2017-Jun-19 03:30N 59°54' E 010°42'0 0.0
2017-Jun-19 02:59N 59°54' E 010°42'0 0.0
2017-Jun-19 02:30N 59°54' E 010°42'0 0.0
2017-Jun-19 02:00N 59°54' E 010°42'  
Track history (hours):
 
Tides and Currents Weather Stations Pressure Air Temp Water Temp Dewpoint Dewpoint Depression Visibility Wind Speed Wind Dir Waves Ship Positions

Svanen (Norway)

Ship's website: http://www.svanen.no/english/english.php1

Last reported at 2017-Jun-29 01:31 UTC. Time now 2017-Jun-29 01:49 UTC.
Position N 58°56' E 011°10'.

Length 27 m; draft 2.8 m.

Type: Sailing vessel. MMSI: 259173000.

Date/timePositionNaut miles runAvg speedWind from/ knotsBaromVisibWave heightAir tempDewpointWater temp
2017-Jun-29 01:31N 58°56' E 011°10'0 0.0
2017-Jun-29 01:00N 58°56' E 011°10'0 0.0
2017-Jun-29 00:28N 58°56' E 011°10'0 0.0
2017-Jun-29 00:01N 58°56' E 011°10'0 0.0
2017-Jun-28 23:28N 58°56' E 011°10'0 0.0
2017-Jun-28 22:58N 58°56' E 011°10'0 0.0
2017-Jun-28 22:30N 58°56' E 011°10'0 0.0
2017-Jun-28 22:00N 58°56' E 011°10'0 0.0
2017-Jun-28 21:28N 58°56' E 011°10'0 0.0
2017-Jun-28 20:58N 58°56' E 011°10'0 0.0
2017-Jun-28 20:28N 58°56' E 011°10'0 0.0
2017-Jun-28 20:00N 58°56' E 011°10'0 0.0
2017-Jun-28 19:28N 58°56' E 011°10'0 0.0
2017-Jun-28 18:58N 58°56' E 011°10'0 0.0
2017-Jun-28 18:31N 58°56' E 011°10'0 0.0
2017-Jun-28 17:58N 58°56' E 011°10'0 0.0
2017-Jun-28 17:28N 58°56' E 011°10'0 0.0
2017-Jun-28 16:58N 58°56' E 011°10'0 0.0
2017-Jun-28 16:30N 58°56' E 011°10'0 0.0
2017-Jun-28 16:00N 58°56' E 011°10'0 0.0
2017-Jun-28 15:28N 58°56' E 011°10'0 0.0
2017-Jun-28 14:58N 58°56' E 011°10'3 3.1
2017-Jun-28 14:00N 58°57' E 011°04'3 6.1
2017-Jun-28 13:30N 58°59' E 011°00'3 5.8
2017-Jun-28 13:00N 59°00' E 010°55'3 5.4
2017-Jun-28 12:30N 59°02' E 010°51'3 6.7
2017-Jun-28 12:00N 59°04' E 010°45'4 7.1
2017-Jun-28 11:30N 59°06' E 010°39'4 7.2
2017-Jun-28 11:00N 59°07' E 010°33'4 7.1
2017-Jun-28 10:30N 59°09' E 010°27'2 4.7
2017-Jun-28 10:00N 59°10' E 010°23'2 3.2
2017-Jun-28 09:30N 59°11' E 010°21'1 2.3
2017-Jun-28 09:00N 59°13' E 010°21'0 0.0
2017-Jun-28 08:29N 59°13' E 010°21'0 0.0
2017-Jun-28 07:59N 59°13' E 010°21'0 0.0
2017-Jun-28 07:25N 59°13' E 010°21'0 0.0
2017-Jun-28 07:00N 59°13' E 010°21'0 0.0
2017-Jun-28 06:30N 59°13' E 010°21'0 0.0
2017-Jun-28 06:00N 59°13' E 010°21'0 0.0
2017-Jun-28 05:29N 59°13' E 010°21'0 0.0
2017-Jun-28 05:00N 59°13' E 010°21'0 0.0
2017-Jun-28 04:26N 59°13' E 010°21'0 0.0
2017-Jun-28 03:59N 59°13' E 010°21'0 0.0
2017-Jun-28 03:29N 59°13' E 010°21'0 0.0
2017-Jun-28 02:59N 59°13' E 010°21'0 0.0
2017-Jun-28 02:29N 59°13' E 010°21'0 0.0
2017-Jun-28 02:00N 59°13' E 010°21'0 0.0
2017-Jun-28 01:30N 59°13' E 010°21'0 0.0
2017-Jun-28 01:00N 59°13' E 010°21'0 0.0
2017-Jun-28 00:30N 59°13' E 010°21'0 0.0
2017-Jun-28 00:00N 59°13' E 010°21'0 0.0
2017-Jun-27 23:30N 59°13' E 010°21'0 0.0
2017-Jun-27 22:59N 59°13' E 010°21'0 0.0
2017-Jun-27 22:30N 59°13' E 010°21'0 0.0
2017-Jun-27 22:00N 59°13' E 010°21'0 0.0
2017-Jun-27 21:30N 59°13' E 010°21'0 0.0
2017-Jun-27 21:00N 59°13' E 010°21'0 0.0
2017-Jun-27 20:29N 59°13' E 010°21'0 0.0
2017-Jun-27 19:56N 59°13' E 010°21'0 0.0
2017-Jun-27 19:29N 59°13' E 010°21'0 0.0
2017-Jun-27 18:59N 59°13' E 010°21'0 0.0
2017-Jun-27 18:26N 59°13' E 010°21'0 0.0
2017-Jun-27 18:00N 59°13' E 010°21'0 0.0
2017-Jun-27 17:30N 59°13' E 010°21'0 0.0
2017-Jun-27 17:00N 59°13' E 010°21'0 0.0
2017-Jun-27 16:30N 59°13' E 010°21'0 0.0
2017-Jun-27 16:00N 59°13' E 010°21'0 0.0
2017-Jun-27 15:30N 59°13' E 010°21'0 0.0
2017-Jun-27 15:00N 59°13' E 010°21'0 0.0
2017-Jun-27 14:30N 59°13' E 010°21'0 0.2
2017-Jun-27 13:30N 59°13' E 010°21'3 5.7
2017-Jun-27 13:00N 59°10' E 010°23'2 5.0
2017-Jun-27 12:30N 59°09' E 010°27'3 5.7
2017-Jun-27 12:00N 59°12' E 010°29'3 6.4
2017-Jun-27 11:30N 59°15' E 010°31'4 7.1
2017-Jun-27 11:00N 59°19' E 010°33'3 6.9
2017-Jun-27 10:30N 59°22' E 010°33'4 7.3
2017-Jun-27 10:00N 59°26' E 010°31'1 2.5
2017-Jun-27 09:30N 59°26' E 010°29'0 0.3
2017-Jun-27 09:00N 59°26' E 010°29'0 0.0
2017-Jun-27 08:29N 59°26' E 010°29'0 0.0
2017-Jun-27 07:58N 59°26' E 010°29'0 0.0
2017-Jun-27 07:29N 59°26' E 010°29'0 0.0
2017-Jun-27 06:59N 59°26' E 010°29'0 0.0
2017-Jun-27 06:30N 59°26' E 010°29'0 0.0
2017-Jun-27 06:00N 59°26' E 010°29'0 0.0
2017-Jun-27 05:30N 59°26' E 010°29'0 0.0
2017-Jun-27 04:59N 59°26' E 010°29'0 0.0
2017-Jun-27 04:30N 59°26' E 010°29'0 0.0
2017-Jun-27 03:59N 59°26' E 010°29'0 0.0
2017-Jun-27 03:29N 59°26' E 010°29'0 0.0
2017-Jun-27 02:59N 59°26' E 010°29'0 0.0
2017-Jun-27 02:30N 59°26' E 010°29'0 0.0
2017-Jun-27 01:59N 59°26' E 010°29'0 0.0
2017-Jun-27 01:29N 59°26' E 010°29'0 0.0
2017-Jun-27 01:00N 59°26' E 010°29'0 0.0
2017-Jun-27 00:29N 59°26' E 010°29'0 0.0
2017-Jun-26 23:59N 59°26' E 010°29'0 0.0
2017-Jun-26 23:28N 59°26' E 010°29'0 0.0
2017-Jun-26 22:59N 59°26' E 010°29'0 0.0
2017-Jun-26 22:30N 59°26' E 010°29'0 0.0
2017-Jun-26 21:58N 59°26' E 010°29'0 0.0
2017-Jun-26 21:28N 59°26' E 010°29'0 0.0
2017-Jun-26 20:58N 59°26' E 010°29'0 0.0
2017-Jun-26 20:31N 59°26' E 010°29'0 0.0
2017-Jun-26 19:58N 59°26' E 010°29'0 0.0
2017-Jun-26 19:29N 59°26' E 010°29'0 0.0
2017-Jun-26 18:58N 59°26' E 010°29'0 0.0
2017-Jun-26 18:28N 59°26' E 010°29'0 0.0
2017-Jun-26 17:59N 59°26' E 010°29'0 0.0
2017-Jun-26 17:30N 59°26' E 010°29'0 0.0
2017-Jun-26 16:59N 59°26' E 010°29'0 0.0
2017-Jun-26 16:29N 59°26' E 010°29'0 0.0
2017-Jun-26 15:55N 59°26' E 010°29'0 0.1
2017-Jun-26 15:30N 59°26' E 010°29'2 4.7
2017-Jun-26 15:00N 59°28' E 010°30'3 6.8
2017-Jun-26 14:30N 59°31' E 010°34'7 6.7
2017-Jun-26 13:31N 59°37' E 010°37'3 6.2
2017-Jun-26 13:00N 59°40' E 010°36'3 6.3
2017-Jun-26 12:30N 59°43' E 010°32'4 7.2
2017-Jun-26 12:00N 59°46' E 010°33'4 7.0
2017-Jun-26 11:31N 59°50' E 010°34'4 7.2
2017-Jun-26 10:59N 59°53' E 010°39'2 0.8
2017-Jun-26 08:21N 59°54' E 010°42'0 0.0
2017-Jun-26 07:58N 59°54' E 010°42'0 0.0
2017-Jun-26 07:27N 59°54' E 010°42'0 0.0
2017-Jun-26 07:00N 59°54' E 010°42'0 0.0
2017-Jun-26 06:30N 59°54' E 010°42'0 0.0
2017-Jun-26 05:58N 59°54' E 010°42'0 0.0
2017-Jun-26 05:28N 59°54' E 010°42'0 0.0
2017-Jun-26 05:00N 59°54' E 010°42'0 0.0
2017-Jun-26 04:27N 59°54' E 010°42'0 0.0
2017-Jun-26 03:57N 59°54' E 010°42'0 0.0
2017-Jun-26 03:27N 59°54' E 010°42'0 0.0
2017-Jun-26 02:58N 59°54' E 010°42'0 0.0
2017-Jun-26 02:30N 59°54' E 010°42'0 0.0
2017-Jun-26 02:00N 59°54' E 010°42'0 0.0
2017-Jun-26 01:30N 59°54' E 010°42'0 0.0
2017-Jun-26 00:58N 59°54' E 010°42'0 0.0
2017-Jun-26 00:28N 59°54' E 010°42'0 0.0
2017-Jun-26 00:01N 59°54' E 010°42'0 0.0
2017-Jun-25 23:28N 59°54' E 010°42'0 0.0
2017-Jun-25 22:57N 59°54' E 010°42'0 0.0
2017-Jun-25 22:28N 59°54' E 010°42'0 0.0
2017-Jun-25 21:57N 59°54' E 010°42'0 0.0
2017-Jun-25 21:30N 59°54' E 010°42'0 0.0
2017-Jun-25 21:00N 59°54' E 010°42'0 0.0
2017-Jun-25 20:28N 59°54' E 010°42'0 0.0
2017-Jun-25 19:58N 59°54' E 010°42'0 0.0
2017-Jun-25 19:27N 59°54' E 010°42'0 0.0
2017-Jun-25 19:00N 59°54' E 010°42'0 0.0
2017-Jun-25 18:30N 59°54' E 010°42'0 0.0
2017-Jun-25 17:55N 59°54' E 010°42'0 0.0
2017-Jun-25 17:28N 59°54' E 010°42'0 0.0
2017-Jun-25 16:58N 59°54' E 010°42'0 0.0
2017-Jun-25 16:28N 59°54' E 010°42'0 0.0
2017-Jun-25 16:00N 59°54' E 010°42'0 0.0
2017-Jun-25 15:27N 59°54' E 010°42'0 0.0
2017-Jun-25 14:57N 59°54' E 010°42'0 0.0
2017-Jun-25 14:28N 59°54' E 010°42'0 0.0
2017-Jun-25 13:27N 59°54' E 010°42'0 0.0
2017-Jun-25 13:00N 59°54' E 010°42'0 0.0
2017-Jun-25 12:30N 59°54' E 010°42'0 0.0
2017-Jun-25 11:58N 59°54' E 010°42'0 0.0
2017-Jun-25 11:30N 59°54' E 010°42'0 0.0
2017-Jun-25 11:00N 59°54' E 010°42'0 0.0
2017-Jun-25 10:28N 59°54' E 010°42'0 0.0
2017-Jun-25 10:01N 59°54' E 010°42'0 0.0
2017-Jun-25 09:30N 59°54' E 010°42'0 0.0
2017-Jun-25 09:00N 59°54' E 010°42'0 0.0
2017-Jun-25 08:28N 59°54' E 010°42'0 0.0
2017-Jun-25 07:58N 59°54' E 010°42'0 0.0
2017-Jun-25 07:27N 59°54' E 010°42'0 0.0
2017-Jun-25 06:58N 59°54' E 010°42'0 0.0
2017-Jun-25 06:31N 59°54' E 010°42'0 0.0
2017-Jun-25 05:58N 59°54' E 010°42'0 0.0
2017-Jun-25 05:28N 59°54' E 010°42'0 0.0
2017-Jun-25 04:57N 59°54' E 010°42'0 0.0
2017-Jun-25 04:27N 59°54' E 010°42'0 0.0
2017-Jun-25 04:00N 59°54' E 010°42'0 0.0
2017-Jun-25 03:30N 59°54' E 010°42'0 0.0
2017-Jun-25 02:58N 59°54' E 010°42'0 0.0
2017-Jun-25 02:28N 59°54' E 010°42'0 0.0
2017-Jun-25 01:57N 59°54' E 010°42'0 0.0
2017-Jun-25 01:27N 59°54' E 010°42'0 0.0
2017-Jun-25 00:57N 59°54' E 010°42'0 0.0
2017-Jun-25 00:28N 59°54' E 010°42'0 0.0
2017-Jun-24 23:57N 59°54' E 010°42'0 0.0
2017-Jun-24 23:28N 59°54' E 010°42'0 0.0
2017-Jun-24 22:58N 59°54' E 010°42'0 0.0
2017-Jun-24 22:31N 59°54' E 010°42'0 0.0
2017-Jun-24 22:00N 59°54' E 010°42'0 0.0
2017-Jun-24 21:30N 59°54' E 010°42'0 0.0
2017-Jun-24 20:58N 59°54' E 010°42'0 0.0
2017-Jun-24 20:31N 59°54' E 010°42'0 0.0
2017-Jun-24 20:01N 59°54' E 010°42'0 0.0
2017-Jun-24 19:30N 59°54' E 010°42'0 0.0
2017-Jun-24 18:58N 59°54' E 010°42'0 0.0
2017-Jun-24 18:28N 59°54' E 010°42'0 0.0
2017-Jun-24 17:58N 59°54' E 010°42'0 0.0
2017-Jun-24 17:27N 59°54' E 010°42'0 0.0
2017-Jun-24 17:01N 59°54' E 010°42'0 0.0
2017-Jun-24 16:28N 59°54' E 010°42'0 0.0
2017-Jun-24 15:58N 59°54' E 010°42'0 0.0
2017-Jun-24 15:27N 59°54' E 010°42'0 0.0
2017-Jun-24 14:57N 59°54' E 010°42'0 0.0
2017-Jun-24 13:58N 59°54' E 010°42'0 0.0
2017-Jun-24 13:28N 59°54' E 010°42'0 0.0
2017-Jun-24 13:00N 59°54' E 010°42'0 0.0
2017-Jun-24 12:30N 59°54' E 010°42'0 0.0
2017-Jun-24 11:58N 59°54' E 010°42'0 0.0
2017-Jun-24 11:27N 59°54' E 010°42'0 0.0
2017-Jun-24 10:58N 59°54' E 010°42'0 0.0
2017-Jun-24 10:28N 59°54' E 010°42'0 0.0
2017-Jun-24 09:58N 59°54' E 010°42'0 0.0
2017-Jun-24 09:28N 59°54' E 010°42'0 0.0
2017-Jun-24 08:58N 59°54' E 010°42'0 0.0
2017-Jun-24 08:30N 59°54' E 010°42'0 0.0
2017-Jun-24 07:58N 59°54' E 010°42'0 0.0
2017-Jun-24 07:28N 59°54' E 010°42'0 0.0
2017-Jun-24 06:57N 59°54' E 010°42'0 0.0
2017-Jun-24 06:27N 59°54' E 010°42'0 0.0
2017-Jun-24 05:58N 59°54' E 010°42'0 0.0
2017-Jun-24 05:28N 59°54' E 010°42'0 0.0
2017-Jun-24 04:57N 59°54' E 010°42'0 0.0
2017-Jun-24 04:30N 59°54' E 010°42'0 0.0
2017-Jun-24 04:00N 59°54' E 010°42'0 0.0
2017-Jun-24 03:27N 59°54' E 010°42'0 0.0
2017-Jun-24 02:58N 59°54' E 010°42'0 0.0
2017-Jun-24 02:28N 59°54' E 010°42'0 0.0
2017-Jun-24 02:00N 59°54' E 010°42'0 0.0
2017-Jun-24 01:27N 59°54' E 010°42'0 0.0
2017-Jun-24 01:00N 59°54' E 010°42'0 0.0
2017-Jun-24 00:30N 59°54' E 010°42'0 0.0
2017-Jun-24 00:00N 59°54' E 010°42'0 0.0
2017-Jun-23 23:28N 59°54' E 010°42'0 0.0
2017-Jun-23 22:58N 59°54' E 010°42'0 0.0
2017-Jun-23 22:27N 59°54' E 010°42'0 0.0
2017-Jun-23 21:58N 59°54' E 010°42'0 0.0
2017-Jun-23 21:28N 59°54' E 010°42'0 0.0
2017-Jun-23 21:00N 59°54' E 010°42'0 0.0
2017-Jun-23 20:28N 59°54' E 010°42'0 0.0
2017-Jun-23 19:58N 59°54' E 010°42'1 1.5
2017-Jun-23 19:30N 59°54' E 010°43'2 3.4
2017-Jun-23 19:00N 59°52' E 010°41'2 5.0
2017-Jun-23 18:31N 59°52' E 010°36'1 3.0
2017-Jun-23 18:00N 59°52' E 010°33'1 2.3
2017-Jun-23 17:30N 59°53' E 010°35'2 3.0
2017-Jun-23 17:00N 59°53' E 010°38'3 5.1
2017-Jun-23 16:29N 59°53' E 010°43'1 2.2
2017-Jun-23 16:00N 59°54' E 010°43'0 0.8
2017-Jun-23 15:30N 59°54' E 010°42'0 0.0
2017-Jun-23 15:00N 59°54' E 010°42'0 0.0
2017-Jun-23 14:00N 59°54' E 010°42'0 0.0
2017-Jun-23 13:30N 59°54' E 010°42'0 0.0
2017-Jun-23 13:00N 59°54' E 010°42'0 0.0
2017-Jun-23 12:30N 59°54' E 010°42'0 0.0
2017-Jun-23 12:00N 59°54' E 010°42'0 0.0
2017-Jun-23 11:30N 59°54' E 010°42'0 0.0
2017-Jun-23 11:00N 59°54' E 010°42'0 0.0
2017-Jun-23 10:30N 59°54' E 010°42'0 0.0
2017-Jun-23 10:00N 59°54' E 010°42'0 0.0
2017-Jun-23 09:30N 59°54' E 010°42'0 0.0
2017-Jun-23 09:00N 59°54' E 010°42'0 0.0
2017-Jun-23 08:30N 59°54' E 010°42'0 0.0
2017-Jun-23 07:59N 59°54' E 010°42'0 0.0
2017-Jun-23 07:29N 59°54' E 010°42'0 0.0
2017-Jun-23 06:57N 59°54' E 010°42'0 0.0
2017-Jun-23 06:30N 59°54' E 010°42'0 0.0
2017-Jun-23 06:00N 59°54' E 010°42'0 0.0
2017-Jun-23 05:30N 59°54' E 010°42'0 0.0
2017-Jun-23 05:00N 59°54' E 010°42'0 0.0
2017-Jun-23 04:30N 59°54' E 010°42'0 0.0
2017-Jun-23 03:59N 59°54' E 010°42'0 0.0
2017-Jun-23 03:29N 59°54' E 010°42'0 0.0
2017-Jun-23 03:00N 59°54' E 010°42'0 0.0
2017-Jun-23 02:30N 59°54' E 010°42'0 0.0
2017-Jun-23 02:00N 59°54' E 010°42'0 0.0
2017-Jun-23 01:30N 59°54' E 010°42'0 0.0
2017-Jun-23 01:00N 59°54' E 010°42'0 0.0
2017-Jun-23 00:30N 59°54' E 010°42'0 0.0
2017-Jun-23 00:00N 59°54' E 010°42'0 0.0
2017-Jun-22 23:30N 59°54' E 010°42'0 0.0
2017-Jun-22 23:00N 59°54' E 010°42'0 0.0
2017-Jun-22 22:30N 59°54' E 010°42'0 0.0
2017-Jun-22 22:00N 59°54' E 010°42'0 0.0
2017-Jun-22 21:29N 59°54' E 010°42'0 0.0
2017-Jun-22 21:00N 59°54' E 010°42'0 0.0
2017-Jun-22 20:30N 59°54' E 010°42'0 0.0
2017-Jun-22 20:00N 59°54' E 010°42'0 0.0
2017-Jun-22 19:30N 59°54' E 010°42'0 0.0
2017-Jun-22 19:00N 59°54' E 010°42'0 0.0
2017-Jun-22 18:30N 59°54' E 010°42'0 0.0
2017-Jun-22 18:00N 59°54' E 010°42'0 0.0
2017-Jun-22 17:29N 59°54' E 010°42'0 0.0
2017-Jun-22 17:00N 59°54' E 010°42'0 0.0
2017-Jun-22 16:30N 59°54' E 010°42'0 0.0
2017-Jun-22 15:59N 59°54' E 010°42'0 0.0
2017-Jun-22 15:30N 59°54' E 010°42'0 0.0
2017-Jun-22 15:00N 59°54' E 010°42'0 0.0
2017-Jun-22 13:57N 59°54' E 010°42'0 0.0
2017-Jun-22 13:29N 59°54' E 010°42'0 0.0
2017-Jun-22 13:00N 59°54' E 010°42'0 0.0
2017-Jun-22 12:30N 59°54' E 010°42'0 0.0
2017-Jun-22 12:00N 59°54' E 010°42'0 0.0
2017-Jun-22 11:29N 59°54' E 010°42'0 0.0
2017-Jun-22 11:00N 59°54' E 010°42'0 0.0
2017-Jun-22 10:30N 59°54' E 010°42'0 0.0
2017-Jun-22 10:00N 59°54' E 010°42'0 0.0
2017-Jun-22 09:30N 59°54' E 010°42'0 0.0
2017-Jun-22 08:59N 59°54' E 010°42'0 0.0
2017-Jun-22 08:29N 59°54' E 010°42'0 0.0
2017-Jun-22 08:00N 59°54' E 010°42'0 0.0
2017-Jun-22 07:29N 59°54' E 010°42'0 0.0
2017-Jun-22 07:00N 59°54' E 010°42'0 0.0
2017-Jun-22 06:30N 59°54' E 010°42'0 0.0
2017-Jun-22 06:00N 59°54' E 010°42'0 0.0
2017-Jun-22 05:30N 59°54' E 010°42'0 0.0
2017-Jun-22 05:00N 59°54' E 010°42'0 0.0
2017-Jun-22 04:30N 59°54' E 010°42'0 0.0
2017-Jun-22 03:59N 59°54' E 010°42'0 0.0
2017-Jun-22 03:30N 59°54' E 010°42'0 0.0
2017-Jun-22 03:00N 59°54' E 010°42'0 0.0
2017-Jun-22 02:30N 59°54' E 010°42'0 0.0
2017-Jun-22 02:00N 59°54' E 010°42'0 0.0
2017-Jun-22 01:30N 59°54' E 010°42'0 0.0
2017-Jun-22 00:59N 59°54' E 010°42'0 0.0
2017-Jun-22 00:30N 59°54' E 010°42'0 0.0
2017-Jun-22 00:00N 59°54' E 010°42'0 0.0
2017-Jun-21 23:30N 59°54' E 010°42'0 0.0
2017-Jun-21 22:59N 59°54' E 010°42'0 0.0
2017-Jun-21 22:29N 59°54' E 010°42'0 0.0
2017-Jun-21 22:00N 59°54' E 010°42'0 0.0
2017-Jun-21 21:30N 59°54' E 010°42'0 0.0
2017-Jun-21 21:00N 59°54' E 010°42'0 0.0
2017-Jun-21 20:30N 59°54' E 010°42'0 0.0
2017-Jun-21 20:00N 59°54' E 010°42'0 0.0
2017-Jun-21 19:29N 59°54' E 010°42'0 0.0
2017-Jun-21 18:59N 59°54' E 010°42'0 0.0
2017-Jun-21 18:30N 59°54' E 010°42'0 0.0
2017-Jun-21 17:59N 59°54' E 010°42'0 0.0
2017-Jun-21 17:30N 59°54' E 010°42'0 0.0
2017-Jun-21 16:59N 59°54' E 010°42'0 0.0
2017-Jun-21 16:29N 59°54' E 010°42'0 0.0
2017-Jun-21 16:00N 59°54' E 010°42'0 0.0
2017-Jun-21 15:30N 59°54' E 010°42'0 0.0
2017-Jun-21 15:00N 59°54' E 010°42'0 0.0
2017-Jun-21 14:30N 59°54' E 010°42'0 0.0
2017-Jun-21 13:30N 59°54' E 010°42'0 0.0
2017-Jun-21 13:00N 59°54' E 010°42'0 0.0
2017-Jun-21 12:30N 59°54' E 010°42'0 0.0
2017-Jun-21 12:00N 59°54' E 010°42'0 0.0
2017-Jun-21 11:29N 59°54' E 010°42'0 0.0
2017-Jun-21 11:00N 59°54' E 010°42'0 0.0
2017-Jun-21 10:29N 59°54' E 010°42'0 0.0
2017-Jun-21 09:59N 59°54' E 010°42'0 0.0
2017-Jun-21 09:29N 59°54' E 010°42'0 0.0
2017-Jun-21 08:59N 59°54' E 010°42'0 0.0
2017-Jun-21 08:30N 59°54' E 010°42'0 0.0
2017-Jun-21 08:00N 59°54' E 010°42'0 0.0
2017-Jun-21 07:30N 59°54' E 010°42'0 0.0
2017-Jun-21 07:00N 59°54' E 010°42'0 0.0
2017-Jun-21 06:30N 59°54' E 010°42'0 0.0
2017-Jun-21 05:59N 59°54' E 010°42'0 0.0
2017-Jun-21 05:30N 59°54' E 010°42'0 0.0
2017-Jun-21 04:59N 59°54' E 010°42'0 0.0
2017-Jun-21 04:26N 59°54' E 010°42'0 0.0
2017-Jun-21 03:59N 59°54' E 010°42'0 0.0
2017-Jun-21 03:30N 59°54' E 010°42'0 0.0
2017-Jun-21 02:59N 59°54' E 010°42'0 0.0
2017-Jun-21 02:29N 59°54' E 010°42'0 0.0
2017-Jun-21 02:00N 59°54' E 010°42'0 0.0
2017-Jun-21 01:30N 59°54' E 010°42'0 0.0
2017-Jun-21 01:00N 59°54' E 010°42'0 0.0
2017-Jun-21 00:30N 59°54' E 010°42'0 0.0
2017-Jun-20 23:59N 59°54' E 010°42'0 0.0
2017-Jun-20 23:30N 59°54' E 010°42'0 0.0
2017-Jun-20 22:59N 59°54' E 010°42'0 0.0
2017-Jun-20 22:29N 59°54' E 010°42'0 0.0
2017-Jun-20 22:00N 59°54' E 010°42'0 0.0
2017-Jun-20 21:30N 59°54' E 010°42'0 0.0
2017-Jun-20 21:00N 59°54' E 010°42'0 0.0
2017-Jun-20 20:30N 59°54' E 010°42'0 0.0
2017-Jun-20 20:00N 59°54' E 010°42'0 0.0
2017-Jun-20 19:30N 59°54' E 010°42'0 0.0
2017-Jun-20 19:00N 59°54' E 010°42'0 0.0
2017-Jun-20 18:29N 59°54' E 010°42'0 0.0
2017-Jun-20 17:59N 59°54' E 010°42'0 0.0
2017-Jun-20 17:29N 59°54' E 010°42'0 0.0
2017-Jun-20 17:00N 59°54' E 010°42'0 0.0
2017-Jun-20 16:29N 59°54' E 010°42'0 0.0
2017-Jun-20 15:59N 59°54' E 010°42'0 0.0
2017-Jun-20 15:30N 59°54' E 010°42'0 0.0
2017-Jun-20 14:57N 59°54' E 010°42'0 0.0
2017-Jun-20 14:30N 59°54' E 010°42'0 0.0
2017-Jun-20 13:29N 59°54' E 010°42'0 0.0
2017-Jun-20 12:59N 59°54' E 010°42'0 0.0
2017-Jun-20 12:30N 59°54' E 010°42'0 0.0
2017-Jun-20 11:59N 59°54' E 010°42'0 0.0
2017-Jun-20 11:30N 59°54' E 010°42'0 0.0
2017-Jun-20 11:00N 59°54' E 010°42'0 0.0
2017-Jun-20 10:29N 59°54' E 010°42'0 0.0
2017-Jun-20 10:00N 59°54' E 010°42'0 0.0
2017-Jun-20 09:30N 59°54' E 010°42'0 0.0
2017-Jun-20 09:00N 59°54' E 010°42'0 0.0
2017-Jun-20 08:29N 59°54' E 010°42'0 0.0
2017-Jun-20 08:00N 59°54' E 010°42'0 0.0
2017-Jun-20 07:30N 59°54' E 010°42'0 0.0
2017-Jun-20 07:00N 59°54' E 010°42'0 0.0
2017-Jun-20 06:30N 59°54' E 010°42'0 0.0
2017-Jun-20 05:59N 59°54' E 010°42'0 0.0
2017-Jun-20 05:29N 59°54' E 010°42'0 0.0
2017-Jun-20 05:00N 59°54' E 010°42'0 0.0
2017-Jun-20 04:30N 59°54' E 010°42'0 0.0
2017-Jun-20 04:00N 59°54' E 010°42'0 0.0
2017-Jun-20 03:30N 59°54' E 010°42'0 0.0
2017-Jun-20 03:00N 59°54' E 010°42'0 0.0
2017-Jun-20 02:30N 59°54' E 010°42'0 0.0
2017-Jun-20 02:00N 59°54' E 010°42'0 0.0
2017-Jun-20 01:30N 59°54' E 010°42'0 0.0
2017-Jun-20 01:00N 59°54' E 010°42'0 0.0
2017-Jun-20 00:30N 59°54' E 010°42'0 0.0
2017-Jun-20 00:00N 59°54' E 010°42'0 0.0
2017-Jun-19 23:29N 59°54' E 010°42'0 0.0
2017-Jun-19 22:59N 59°54' E 010°42'0 0.0
2017-Jun-19 22:30N 59°54' E 010°42'0 0.0
2017-Jun-19 21:59N 59°54' E 010°42'0 0.0
2017-Jun-19 21:30N 59°54' E 010°42'0 0.0
2017-Jun-19 21:00N 59°54' E 010°42'0 0.0
2017-Jun-19 20:29N 59°54' E 010°42'0 0.0
2017-Jun-19 20:00N 59°54' E 010°42'0 0.0
2017-Jun-19 19:30N 59°54' E 010°42'0 0.0
2017-Jun-19 18:59N 59°54' E 010°42'0 0.0
2017-Jun-19 18:30N 59°54' E 010°42'0 0.0
2017-Jun-19 18:00N 59°54' E 010°42'0 0.0
2017-Jun-19 17:30N 59°54' E 010°42'0 0.0
2017-Jun-19 16:59N 59°54' E 010°42'0 0.0
2017-Jun-19 16:30N 59°54' E 010°42'0 0.0
2017-Jun-19 16:00N 59°54' E 010°42'0 0.0
2017-Jun-19 15:30N 59°54' E 010°42'0 0.0
2017-Jun-19 14:59N 59°54' E 010°42'0 0.0
2017-Jun-19 14:30N 59°54' E 010°42'0 0.0
2017-Jun-19 13:30N 59°54' E 010°42'0 0.0
2017-Jun-19 13:00N 59°54' E 010°42'0 0.0
2017-Jun-19 12:30N 59°54' E 010°42'0 0.0
2017-Jun-19 11:59N 59°54' E 010°42'0 0.0
2017-Jun-19 11:30N 59°54' E 010°42'0 0.0
2017-Jun-19 11:00N 59°54' E 010°42'0 0.0
2017-Jun-19 10:30N 59°54' E 010°42'0 0.0
2017-Jun-19 09:59N 59°54' E 010°42'0 0.0
2017-Jun-19 09:29N 59°54' E 010°42'0 0.0
2017-Jun-19 08:59N 59°54' E 010°42'0 0.0
2017-Jun-19 08:30N 59°54' E 010°42'0 0.0
2017-Jun-19 08:00N 59°54' E 010°42'0 0.0
2017-Jun-19 07:29N 59°54' E 010°42'0 0.0
2017-Jun-19 07:00N 59°54' E 010°42'0 0.0
2017-Jun-19 06:29N 59°54' E 010°42'0 0.0
2017-Jun-19 06:00N 59°54' E 010°42'0 0.0
2017-Jun-19 05:30N 59°54' E 010°42'0 0.0
2017-Jun-19 05:00N 59°54' E 010°42'0 0.0
2017-Jun-19 04:30N 59°54' E 010°42'0 0.0
2017-Jun-19 04:00N 59°54' E 010°42'0 0.0
2017-Jun-19 03:30N 59°54' E 010°42'0 0.0
2017-Jun-19 02:59N 59°54' E 010°42'0 0.0
2017-Jun-19 02:30N 59°54' E 010°42'0 0.0
2017-Jun-19 02:00N 59°54' E 010°42'  

Dump ship's entire track history